Terminal Aerodrome Forecast
Issued by NWS Dallas/Fort Worth, TX

Home | Current Version | Previous Version | Text Only | Print | Product List | Glossary On
Versions: 1 2 3 4 5 6 7 8 9 10 11 12 13 14 15 16 17 18 19 20 21 22 23 24 25 26 27 28 29 30 31 32 33 34 35
000
FTUS44 KFWD 160907 AAA
TAFDFW
TAF AMD
KDFW 160907Z 1609/1712 VRB04KT 2SM BR SCT002
      TEMPO 1609/1610 1/2SM FG OVC002
     FM161000 VRB04KT 1/2SM FG OVC002
      TEMPO 1610/1614 1/4SM FG VV002
     FM161500 26008KT P6SM SCT002
     FM162300 33007KT P6SM FEW020 SCT090=

USA.gov is the U.S. government's official web portal to all federal, state and local government web resources and services.